Time;durP1;ratioP1;P1;durP2;ratioP2;P2;SDS_P1;SDS_P2;PMS_P1;PMS_P2;Temp;Humidity;BMP_temperature;BMP_pressure;BME280_temperature;BME280_humidity;BME280_pressure;Samples;Min_cycle;Max_cycle;Signal;HPM_P1;HPM_P2
2022/09/14 04:01:33;;;;;;;7.40;5.00;;;19.70;99.90;;;;;;5488824;23;20508;-74
2022/09/14 04:04:00;;;;;;;5.70;4.50;;;19.70;99.90;;;;;;4985736;28;20455;-74
2022/09/14 04:06:27;;;;;;;8.70;4.50;;;19.70;99.90;;;;;;4985548;28;20456;-75
2022/09/14 04:08:54;;;;;;;7.17;4.20;;;19.60;99.90;;;;;;4985849;28;20464;-74
2022/09/14 04:11:24;;;;;;;5.20;4.20;;;19.60;99.90;;;;;;4986018;28;20526;-75
2022/09/14 04:13:52;;;;;;;4.93;4.20;;;19.50;99.90;;;;;;4985876;28;20468;-75
2022/09/14 04:16:20;;;;;;;8.00;4.67;;;19.50;99.90;;;;;;4985322;28;21011;-73
2022/09/14 04:18:48;;;;;;;5.10;3.70;;;19.50;99.90;;;;;;4986186;28;20460;-74
2022/09/14 04:21:18;;;;;;;7.70;4.70;;;19.50;99.90;;;;;;4987645;28;20479;-74
2022/09/14 04:23:45;;;;;;;5.70;4.97;;;19.50;99.90;;;;;;4992834;28;20472;-74
2022/09/14 04:26:13;;;;;;;5.47;4.57;;;19.60;99.90;;;;;;4991847;28;20459;-74
2022/09/14 04:28:40;;;;;;;5.60;5.00;;;19.60;99.90;;;;;;4992828;28;20467;-74
2022/09/14 04:31:08;;;;;;;6.77;5.10;;;19.50;99.90;;;;;;4991879;28;20471;-74
2022/09/14 04:33:36;;;;;;;9.70;6.10;;;19.50;99.90;;;;;;4992851;28;20459;-74
2022/09/14 04:36:06;;;;;;;7.83;5.80;;;19.50;99.90;;;;;;4991707;28;20498;-74
2022/09/14 04:38:34;;;;;;;8.70;6.90;;;19.50;99.90;;;;;;4992207;28;20475;-74
2022/09/14 04:41:05;;;;;;;6.33;5.50;;;19.50;99.90;;;;;;4992262;28;20509;-74
2022/09/14 04:43:31;;;;;;;7.43;6.10;;;19.50;99.90;;;;;;4992860;28;20448;-73
2022/09/14 04:46:02;;;;;;;6.67;5.50;;;19.50;99.90;;;;;;4991985;28;20459;-74
2022/09/14 04:48:32;;;;;;;7.53;6.13;;;19.50;99.90;;;;;;4992791;28;20846;-70
2022/09/14 04:51:01;;;;;;;8.57;7.30;;;19.50;99.90;;;;;;4992331;28;20542;-71
2022/09/14 04:53:29;;;;;;;9.47;7.67;;;19.60;99.90;;;;;;4992458;28;20534;-70
2022/09/14 04:56:00;;;;;;;10.43;7.40;;;19.50;99.90;;;;;;4991043;28;20464;-70
2022/09/14 04:58:27;;;;;;;11.57;7.93;;;19.60;99.90;;;;;;4992160;28;20640;-70
2022/09/14 05:00:54;;;;;;;8.07;7.27;;;19.70;99.90;;;;;;4992038;28;20778;-70
2022/09/14 05:03:21;;;;;;;10.70;7.83;;;19.70;99.90;;;;;;4992375;28;20467;-76
2022/09/14 05:05:48;;;;;;;8.30;7.10;;;19.60;99.90;;;;;;4991620;28;20951;-76
2022/09/14 05:08:15;;;;;;;9.00;7.30;;;19.60;99.90;;;;;;4992139;28;20464;-77
2022/09/14 05:10:43;;;;;;;10.73;7.40;;;19.60;99.90;;;;;;4992309;28;20486;-76
2022/09/14 05:13:10;;;;;;;8.33;7.53;;;19.60;99.90;;;;;;4992622;28;20887;-76
2022/09/14 05:15:37;;;;;;;10.73;8.13;;;19.60;99.90;;;;;;4991310;28;21045;-77
2022/09/14 05:18:04;;;;;;;11.90;7.80;;;19.50;99.90;;;;;;4992095;28;20463;-78
2022/09/14 05:20:31;;;;;;;8.77;7.50;;;19.30;99.90;;;;;;4992194;28;20487;-76
2022/09/14 05:22:57;;;;;;;8.50;7.27;;;19.20;99.90;;;;;;4991998;28;20463;-77
2022/09/14 05:25:24;;;;;;;6.20;5.70;;;19.10;99.90;;;;;;4991601;28;20462;-77
2022/09/14 05:27:52;;;;;;;6.20;5.60;;;19.10;99.90;;;;;;4992423;28;20456;-76
2022/09/14 05:30:19;;;;;;;6.93;6.20;;;19.10;99.90;;;;;;4992562;28;20478;-77
2022/09/14 05:32:46;;;;;;;5.73;5.13;;;19.10;99.90;;;;;;4990828;28;20460;-78
2022/09/14 05:35:13;;;;;;;7.10;5.43;;;19.10;99.90;;;;;;4988287;28;20491;-78
2022/09/14 05:37:39;;;;;;;7.40;5.20;;;19.10;99.90;;;;;;4988959;28;20464;-76
2022/09/14 05:40:08;;;;;;;5.57;4.97;;;19.10;99.90;;;;;;4989103;28;20466;-76
2022/09/14 05:42:35;;;;;;;6.10;5.40;;;19.20;99.90;;;;;;4989166;28;20551;-77
2022/09/14 05:45:04;;;;;;;6.70;5.70;;;19.20;99.90;;;;;;4988215;28;20467;-76
2022/09/14 05:47:31;;;;;;;8.00;6.43;;;19.20;99.90;;;;;;4988787;28;21135;-77
2022/09/14 05:49:58;;;;;;;7.30;5.93;;;19.20;99.90;;;;;;4988652;28;20467;-76
2022/09/14 05:52:25;;;;;;;6.80;5.07;;;19.20;99.90;;;;;;4988720;28;20490;-76
2022/09/14 05:54:51;;;;;;;6.10;5.50;;;19.30;99.90;;;;;;4987411;28;20487;-77
2022/09/14 05:57:18;;;;;;;5.70;5.10;;;19.30;99.90;;;;;;4988370;28;20452;-76
2022/09/14 05:59:45;;;;;;;6.30;5.03;;;19.30;99.90;;;;;;4987960;28;20935;-76
2022/09/14 06:02:13;;;;;;;7.60;5.73;;;19.40;99.90;;;;;;4987755;28;20483;-76
2022/09/14 06:04:40;;;;;;;7.80;5.57;;;19.40;99.90;;;;;;4987346;28;20459;-76
2022/09/14 06:07:06;;;;;;;8.60;6.20;;;19.40;99.90;;;;;;4988055;28;20881;-76
2022/09/14 06:09:33;;;;;;;8.77;7.00;;;19.40;99.90;;;;;;4987815;28;21143;-76
2022/09/14 06:12:00;;;;;;;8.33;6.90;;;19.40;99.90;;;;;;4987824;28;20598;-77
2022/09/14 06:14:27;;;;;;;8.03;7.23;;;19.40;99.90;;;;;;4987987;28;20471;-76
2022/09/14 06:16:54;;;;;;;10.63;7.40;;;19.50;99.90;;;;;;4988315;28;20491;-77
2022/09/14 06:19:22;;;;;;;9.20;7.10;;;19.50;99.90;;;;;;4987876;28;20463;-76
2022/09/14 06:21:48;;;;;;;11.33;8.47;;;19.50;99.90;;;;;;4987849;28;20494;-76
2022/09/14 06:24:15;;;;;;;9.37;8.37;;;19.50;99.90;;;;;;4987633;28;20456;-77
2022/09/14 06:26:42;;;;;;;9.13;8.23;;;19.50;99.90;;;;;;4987965;28;20459;-77
2022/09/14 06:29:09;;;;;;;7.57;6.80;;;19.50;99.90;;;;;;4987917;28;20467;-77
2022/09/14 06:31:36;;;;;;;9.63;8.47;;;19.50;99.90;;;;;;4986133;28;20480;-76
2022/09/14 06:34:03;;;;;;;9.77;7.90;;;19.50;99.90;;;;;;4987206;28;20470;-76
2022/09/14 06:36:31;;;;;;;10.90;7.83;;;19.50;99.90;;;;;;4987397;28;20494;-76
2022/09/14 06:38:59;;;;;;;9.50;8.20;;;19.60;99.90;;;;;;4987615;28;21371;-66
2022/09/14 06:41:29;;;;;;;9.40;8.30;;;19.60;99.90;;;;;;4987567;28;20483;-66
2022/09/14 06:43:57;;;;;;;11.53;8.43;;;19.60;99.90;;;;;;4987236;28;20494;-77
2022/09/14 06:46:26;;;;;;;10.30;8.90;;;19.60;99.90;;;;;;4987763;28;20458;-76
2022/09/14 06:48:57;;;;;;;12.17;8.57;;;19.60;99.90;;;;;;4987935;28;20475;-76
2022/09/14 06:51:25;;;;;;;13.90;8.50;;;19.70;99.90;;;;;;4987741;28;20487;-76
2022/09/14 06:53:55;;;;;;;9.20;8.30;;;19.70;99.90;;;;;;4987725;28;20467;-76
2022/09/14 06:56:22;;;;;;;6.90;6.20;;;19.70;99.90;;;;;;4987054;28;20490;-76
2022/09/14 06:58:51;;;;;;;8.83;7.87;;;19.70;99.90;;;;;;4987562;28;20803;-76
2022/09/14 07:01:19;;;;;;;9.70;7.20;;;19.70;99.90;;;;;;4987341;28;20546;-76
2022/09/14 07:03:47;;;;;;;7.70;6.40;;;19.70;99.90;;;;;;4987208;28;20952;-76
2022/09/14 07:06:15;;;;;;;9.73;7.33;;;19.70;99.90;;;;;;4986512;28;20458;-76
2022/09/14 07:08:43;;;;;;;12.40;7.60;;;19.80;99.90;;;;;;4987085;28;20460;-77
2022/09/14 07:11:13;;;;;;;7.93;6.97;;;19.80;99.90;;;;;;4986696;28;20472;-76
2022/09/14 07:13:41;;;;;;;9.70;7.83;;;19.80;99.90;;;;;;4986401;28;20461;-76
2022/09/14 07:16:07;;;;;;;12.37;8.20;;;19.80;99.90;;;;;;4985407;28;21065;-76
2022/09/14 07:18:35;;;;;;;10.70;7.20;;;19.90;99.90;;;;;;4986062;28;20533;-76
2022/09/14 07:21:03;;;;;;;8.17;6.80;;;19.90;99.90;;;;;;4985793;28;20510;-76
2022/09/14 07:23:29;;;;;;;9.00;5.73;;;19.90;99.90;;;;;;4986287;28;20467;-77
2022/09/14 07:26:01;;;;;;;9.40;7.40;;;19.90;99.90;;;;;;4985250;28;21238;-76
2022/09/14 07:28:29;;;;;;;8.07;6.90;;;20.00;99.90;;;;;;4987091;28;20829;-76
2022/09/14 07:30:56;;;;;;;15.20;8.60;;;19.90;99.90;;;;;;4985413;28;20496;-76
2022/09/14 07:33:23;;;;;;;8.80;7.90;;;20.00;99.90;;;;;;4986956;28;20447;-76
2022/09/14 07:35:51;;;;;;;9.20;8.20;;;20.00;99.90;;;;;;4985630;28;21003;-76
2022/09/14 07:38:18;;;;;;;10.20;8.27;;;20.00;99.90;;;;;;4986571;28;21046;-76
2022/09/14 07:40:45;;;;;;;9.93;7.73;;;20.00;99.90;;;;;;4986694;28;20487;-76
2022/09/14 07:43:12;;;;;;;9.50;8.13;;;20.00;99.90;;;;;;4986853;28;20473;-76
2022/09/14 07:45:40;;;;;;;9.47;7.90;;;20.00;99.90;;;;;;4985973;28;20826;-76
2022/09/14 07:48:07;;;;;;;9.77;7.77;;;20.10;99.90;;;;;;4986522;28;20459;-76
2022/09/14 07:50:34;;;;;;;11.50;9.03;;;20.20;99.90;;;;;;4986224;28;20484;-76
2022/09/14 07:53:01;;;;;;;11.80;9.13;;;20.20;99.90;;;;;;4985909;28;20459;-76
2022/09/14 07:55:28;;;;;;;10.70;8.23;;;20.20;99.90;;;;;;4984983;28;20491;-76
2022/09/14 07:57:55;;;;;;;13.20;9.90;;;20.30;99.90;;;;;;4986659;28;20459;-76
2022/09/14 08:00:22;;;;;;;13.13;10.33;;;20.30;99.90;;;;;;4986046;28;20967;-77
2022/09/14 08:02:54;;;;;;;11.77;8.40;;;20.30;99.90;;;;;;4986322;28;20466;-77
2022/09/14 08:05:20;;;;;;;13.67;9.33;;;20.30;99.90;;;;;;4985270;28;20464;-77
2022/09/14 08:07:47;;;;;;;12.03;10.57;;;20.30;99.90;;;;;;4986377;28;20467;-77
2022/09/14 08:10:14;;;;;;;14.27;10.20;;;20.40;99.90;;;;;;4984908;28;20451;-76
2022/09/14 08:12:41;;;;;;;13.77;9.03;;;20.40;99.90;;;;;;4986528;28;20455;-77
2022/09/14 08:15:09;;;;;;;12.37;10.17;;;20.50;99.90;;;;;;4985555;28;21118;-77
2022/09/14 08:17:36;;;;;;;13.27;8.60;;;20.50;99.90;;;;;;4986151;28;20499;-77
2022/09/14 08:20:05;;;;;;;13.40;10.10;;;20.50;99.90;;;;;;4986529;28;20459;-77
2022/09/14 08:22:31;;;;;;;10.47;9.00;;;20.60;99.90;;;;;;4986250;28;20827;-77
2022/09/14 08:24:58;;;;;;;12.80;9.80;;;20.60;99.90;;;;;;4985721;28;20836;-77
2022/09/14 08:27:25;;;;;;;18.90;12.03;;;20.70;99.90;;;;;;4986522;28;20451;-77
2022/09/14 08:29:53;;;;;;;15.93;10.10;;;20.70;99.90;;;;;;4986374;28;20459;-77
2022/09/14 08:32:19;;;;;;;12.60;10.00;;;20.80;99.90;;;;;;4986135;28;20514;-77
2022/09/14 08:34:47;;;;;;;18.63;9.87;;;20.70;99.90;;;;;;4985743;28;20471;-76
2022/09/14 08:37:15;;;;;;;12.03;9.57;;;20.70;99.90;;;;;;4986243;28;20491;-76
2022/09/14 08:39:42;;;;;;;11.50;9.03;;;20.70;99.90;;;;;;4986101;28;21156;-76
2022/09/14 08:42:13;;;;;;;14.67;9.87;;;20.80;99.90;;;;;;4986398;28;20864;-77
2022/09/14 08:44:43;;;;;;;16.20;11.20;;;20.80;99.90;;;;;;4985712;28;20440;-77
2022/09/14 08:47:13;;;;;;;14.17;9.97;;;20.80;99.90;;;;;;4986031;28;20471;-77
2022/09/14 08:49:46;;;;;;;17.30;10.10;;;20.90;99.90;;;;;;4986257;28;20447;-77
2022/09/14 08:52:22;;;;;;;10.90;8.90;;;20.90;99.90;;;;;;4985787;28;20475;-77
2022/09/14 08:54:52;;;;;;;11.07;9.83;;;21.00;99.90;;;;;;4985239;28;21162;-77
2022/09/14 08:57:22;;;;;;;10.53;9.43;;;21.00;99.90;;;;;;4985686;28;20502;-77
2022/09/14 08:59:56;;;;;;;14.33;9.57;;;21.00;99.90;;;;;;4985954;28;20455;-78
2022/09/14 09:02:56;;;;;;;12.33;8.90;;;21.00;99.90;;;;;;4985470;28;20574;-77
2022/09/14 09:05:42;;;;;;;10.70;9.20;;;21.00;99.90;;;;;;4960278;28;20455;-77
2022/09/14 09:08:18;;;;;;;11.83;8.27;;;21.00;99.90;;;;;;4987901;28;20438;-77
2022/09/14 09:10:47;;;;;;;14.50;8.63;;;21.10;99.90;;;;;;4989685;28;20485;-77
2022/09/14 09:13:17;;;;;;;12.33;8.47;;;21.10;99.90;;;;;;4989623;28;20463;-78
2022/09/14 09:15:48;;;;;;;12.50;8.27;;;21.20;99.90;;;;;;4988386;28;21031;-77
2022/09/14 09:18:19;;;;;;;10.60;8.07;;;21.20;99.90;;;;;;4989131;28;20542;-77
2022/09/14 09:20:51;;;;;;;8.53;7.50;;;21.30;99.90;;;;;;4989239;28;20475;-77
2022/09/14 09:23:21;;;;;;;12.83;7.70;;;21.40;99.90;;;;;;4989126;28;20451;-77
2022/09/14 09:26:00;;;;;;;9.67;7.43;;;21.60;99.90;;;;;;4988711;28;20471;-77
2022/09/14 09:28:28;;;;;;;11.93;8.20;;;21.70;99.90;;;;;;4989476;28;20444;-77
2022/09/14 09:30:57;;;;;;;13.13;6.93;;;21.80;99.90;;;;;;4988110;28;20575;-77
2022/09/14 09:33:26;;;;;;;8.50;6.50;;;21.80;99.90;;;;;;4987801;28;20463;-77
2022/09/14 09:35:55;;;;;;;13.00;6.13;;;21.90;99.90;;;;;;4988095;28;20466;-78
2022/09/14 09:38:24;;;;;;;9.40;6.70;;;22.00;99.90;;;;;;4988664;28;20462;-78
2022/09/14 09:40:54;;;;;;;8.80;6.20;;;22.20;99.90;;;;;;4988200;28;20568;-78
2022/09/14 09:43:21;;;;;;;11.50;5.80;;;22.30;99.90;;;;;;4988361;28;20844;-78
2022/09/14 09:45:57;;;;;;;13.90;6.67;;;22.40;99.90;;;;;;4988063;28;20466;-78
2022/09/14 09:48:28;;;;;;;8.10;5.50;;;22.50;99.90;;;;;;4988945;28;20522;-78
2022/09/14 09:51:04;;;;;;;6.43;5.67;;;22.60;99.90;;;;;;4988733;28;20480;-77
2022/09/14 09:53:34;;;;;;;5.70;5.20;;;22.80;99.90;;;;;;4990409;28;20943;-77
2022/09/14 09:56:01;;;;;;;9.80;5.67;;;23.00;99.90;;;;;;4989727;28;20498;-76
2022/09/14 09:58:32;;;;;;;8.33;4.80;;;23.20;99.90;;;;;;4990600;28;20841;-76
2022/09/14 10:01:01;;;;;;;11.93;5.70;;;23.30;99.90;;;;;;4990419;28;20490;-77
2022/09/14 10:03:32;;;;;;;5.37;4.87;;;23.40;99.90;;;;;;4990628;28;20466;-77
2022/09/14 10:06:08;;;;;;;6.80;5.03;;;23.60;99.90;;;;;;4989897;28;20506;-77
2022/09/14 10:08:42;;;;;;;8.63;4.47;;;23.90;99.90;;;;;;4990849;28;20531;-76
2022/09/14 10:11:28;;;;;;;7.93;5.77;;;24.10;99.90;;;;;;4990608;28;20862;-77
2022/09/14 10:13:54;;;;;;;9.03;4.53;;;24.10;99.90;;;;;;4990461;28;20440;-76
2022/09/14 10:16:22;;;;;;;8.30;4.63;;;24.10;99.90;;;;;;4988146;28;20550;-79
2022/09/14 10:18:50;;;;;;;7.50;5.00;;;24.20;99.90;;;;;;4988556;28;20567;-77
2022/09/14 10:21:18;;;;;;;10.33;4.50;;;24.20;99.90;;;;;;4989340;28;20491;-77
2022/09/14 10:24:01;;;;;;;10.67;4.67;;;24.10;99.90;;;;;;4989107;28;20466;-77
2022/09/14 10:26:33;;;;;;;8.30;5.60;;;24.10;99.90;;;;;;4988738;28;21002;-79
2022/09/14 10:29:26;;;;;;;6.73;4.87;;;24.10;99.90;;;;;;4988906;28;20987;-76
2022/09/14 10:31:56;;;;;;;6.67;5.07;;;24.10;99.90;;;;;;4989263;28;20456;-76
2022/09/14 10:34:23;;;;;;;6.20;4.33;;;24.10;99.90;;;;;;4988508;28;20458;-76
2022/09/14 10:36:57;;;;;;;6.03;4.10;;;24.00;99.90;;;;;;4988660;28;21011;-75
2022/09/14 10:39:34;;;;;;;6.27;4.10;;;24.10;99.90;;;;;;4989469;28;20455;-76
2022/09/14 10:42:12;;;;;;;5.97;4.10;;;24.00;99.90;;;;;;4988657;28;20479;-78
2022/09/14 10:44:47;;;;;;;10.03;4.23;;;24.00;99.90;;;;;;4989372;28;20447;-75
2022/09/14 10:47:37;;;;;;;8.60;4.83;;;23.90;99.90;;;;;;4989562;28;20472;-76
2022/09/14 10:50:22;;;;;;;12.13;4.70;;;23.90;99.90;;;;;;4988817;28;20447;-75
2022/09/14 10:52:56;;;;;;;7.80;4.70;;;23.90;99.90;;;;;;4989447;28;20456;-76
2022/09/14 10:55:34;;;;;;;5.90;4.00;;;23.90;99.90;;;;;;4988440;28;20502;-76
2022/09/14 10:58:12;;;;;;;5.53;3.90;;;23.90;99.90;;;;;;4989443;28;20869;-77
2022/09/14 11:00:51;;;;;;;8.93;4.20;;;23.90;99.90;;;;;;4989221;28;20491;-77
2022/09/14 11:03:30;;;;;;;5.33;3.87;;;24.00;99.90;;;;;;4988934;28;20566;-76
2022/09/14 11:06:07;;;;;;;5.77;3.60;;;24.00;99.90;;;;;;4988665;28;20447;-76
2022/09/14 11:08:39;;;;;;;6.93;4.53;;;24.10;99.90;;;;;;4989858;28;21233;-80
2022/09/14 11:11:35;;;;;;;6.57;3.60;;;24.00;99.90;;;;;;4989412;28;20483;-76
2022/09/14 11:14:18;;;;;;;9.20;4.50;;;24.00;99.90;;;;;;4989667;28;20478;-77
2022/09/14 11:16:56;;;;;;;6.53;3.60;;;24.10;99.90;;;;;;4989998;28;20483;-75
2022/09/14 11:19:33;;;;;;;5.97;3.03;;;24.20;99.90;;;;;;4989413;28;20444;-77
2022/09/14 11:22:06;;;;;;;5.20;3.60;;;24.30;99.90;;;;;;4988712;28;20843;-76
2022/09/14 11:24:39;;;;;;;7.00;3.57;;;24.50;99.90;;;;;;4988320;28;20456;-76
2022/09/14 11:27:15;;;;;;;5.23;3.70;;;24.60;99.90;;;;;;4989223;28;20448;-76
2022/09/14 11:29:47;;;;;;;4.10;2.80;;;24.60;99.90;;;;;;4988732;28;20521;-76
2022/09/14 11:32:19;;;;;;;4.53;3.30;;;24.60;99.90;;;;;;4989180;28;20479;-78
2022/09/14 11:34:53;;;;;;;3.43;3.10;;;24.70;99.90;;;;;;4988484;28;20924;-76
2022/09/14 11:37:26;;;;;;;7.70;3.90;;;24.70;99.90;;;;;;4989611;28;20854;-77
2022/09/14 11:40:03;;;;;;;8.90;3.80;;;24.80;99.90;;;;;;4990113;28;20859;-83
2022/09/14 11:42:35;;;;;;;6.90;3.27;;;24.80;99.90;;;;;;4990837;28;20578;-76
2022/09/14 11:45:07;;;;;;;4.83;3.00;;;24.80;99.90;;;;;;4989633;28;20464;-77
2022/09/14 11:47:41;;;;;;;5.93;3.57;;;24.90;99.90;;;;;;4987890;28;20459;-78
2022/09/14 11:50:18;;;;;;;4.57;2.50;;;24.90;99.90;;;;;;4989944;28;20447;-79
2022/09/14 11:52:45;;;;;;;3.23;2.67;;;25.00;99.90;;;;;;4991154;28;20448;-76
2022/09/14 11:55:17;;;;;;;3.70;2.57;;;25.20;99.90;;;;;;4988569;28;20465;-79
2022/09/14 11:57:47;;;;;;;3.93;2.30;;;25.50;99.90;;;;;;4989168;28;20479;-77
2022/09/14 12:00:46;;;;;;;4.93;2.50;;;25.70;99.90;;;;;;4988605;28;20460;-77
2022/09/14 12:03:16;;;;;;;4.40;2.70;;;25.80;99.90;;;;;;4988507;28;20436;-77
2022/09/14 12:05:43;;;;;;;4.27;2.63;;;25.80;99.90;;;;;;4988328;28;20440;-77
2022/09/14 12:08:38;;;;;;;2.90;2.17;;;25.80;99.90;;;;;;4988384;28;20595;-77
2022/09/14 12:11:25;;;;;;;5.30;2.60;;;25.80;99.90;;;;;;4988435;28;20472;-69
2022/09/14 12:14:14;;;;;;;4.67;2.43;;;25.90;99.90;;;;;;4987518;28;20550;-69
2022/09/14 12:17:14;;;;;;;5.80;2.40;;;26.10;99.90;;;;;;4986484;28;20923;-69
2022/09/14 12:19:42;;;;;;;5.32;2.50;;;26.10;99.90;;;;;;4984683;28;21088;-69
2022/09/14 12:22:30;;;;;;;6.20;2.90;;;26.50;99.90;;;;;;4986120;28;20236;-76
2022/09/14 12:25:00;;;;;;;5.37;2.20;;;26.40;99.90;;;;;;4986063;28;20909;-76
2022/09/14 12:27:31;;;;;;;5.73;2.73;;;26.30;99.90;;;;;;4984855;28;20456;-77
2022/09/14 12:29:59;;;;;;;3.70;2.33;;;26.10;99.90;;;;;;4985055;28;20458;-75
2022/09/14 12:32:41;;;;;;;5.33;2.80;;;26.10;99.90;;;;;;4985512;28;20995;-76
2022/09/14 12:35:45;;;;;;;5.77;2.47;;;25.90;99.90;;;;;;4984135;28;20474;-78
2022/09/14 12:38:41;;;;;;;6.30;2.70;;;25.80;99.90;;;;;;4984976;28;20495;-75
2022/09/14 12:41:45;;;;;;;6.90;2.87;;;25.80;99.90;;;;;;4984981;28;20487;-75
2022/09/14 12:44:34;;;;;;;5.63;2.67;;;25.70;99.90;;;;;;4989187;28;20463;-76
2022/09/14 12:47:53;;;;;;;3.43;2.53;;;25.70;99.90;;;;;;4991993;28;20436;-79
2022/09/14 12:50:24;;;;;;;6.10;2.50;;;25.60;99.90;;;;;;4991636;28;20454;-78
2022/09/14 12:53:09;;;;;;;5.40;2.37;;;25.60;99.90;;;;;;4991556;28;20821;-77
2022/09/14 12:55:53;;;;;;;3.97;2.57;;;25.50;99.90;;;;;;4990990;28;20451;-79
2022/09/14 12:58:43;;;;;;;3.33;2.30;;;25.40;99.90;;;;;;4991168;28;20480;-78
2022/09/14 13:01:25;;;;;;;4.63;2.37;;;25.40;99.90;;;;;;4990645;28;20487;-75
2022/09/14 13:03:54;;;;;;;7.70;2.97;;;25.30;99.90;;;;;;4990919;28;21316;-82
2022/09/14 13:06:24;;;;;;;3.83;2.13;;;25.30;99.90;;;;;;4989982;28;21050;-70
2022/09/14 13:08:56;;;;;;;3.70;2.27;;;25.30;99.90;;;;;;4990691;28;20459;-75
2022/09/14 13:11:27;;;;;;;3.40;2.47;;;25.20;99.90;;;;;;4991025;28;20480;-74
2022/09/14 13:13:55;;;;;;;6.17;2.63;;;25.00;99.90;;;;;;4990576;28;20467;-76
2022/09/14 13:16:34;;;;;;;3.70;2.53;;;24.90;99.90;;;;;;4990523;28;20814;-75
2022/09/14 13:19:05;;;;;;;6.77;2.60;;;24.80;99.90;;;;;;4990084;28;20483;-77
2022/09/14 13:21:33;;;;;;;4.10;2.80;;;24.70;99.90;;;;;;4990226;28;20479;-75
2022/09/14 13:24:00;;;;;;;6.30;2.87;;;24.60;99.90;;;;;;4989234;28;20464;-77
2022/09/14 13:26:32;;;;;;;5.13;2.63;;;24.50;99.90;;;;;;4990236;28;20460;-77
2022/09/14 13:29:01;;;;;;;4.90;2.50;;;24.40;99.90;;;;;;4990587;28;20448;-82
2022/09/14 13:31:31;;;;;;;4.33;2.70;;;24.10;99.90;;;;;;4990613;28;20492;-76
2022/09/14 13:33:59;;;;;;;3.20;2.33;;;23.70;99.90;;;;;;4992243;28;20463;-76
2022/09/14 13:36:28;;;;;;;4.00;2.20;;;23.40;99.90;;;;;;4992535;28;20459;-87
2022/09/14 13:39:00;;;;;;;4.40;2.63;;;23.20;99.90;;;;;;4991691;28;20499;-74
2022/09/14 13:41:27;;;;;;;6.13;2.90;;;22.90;99.90;;;;;;4992708;28;20486;-77
2022/09/14 13:43:56;;;;;;;5.77;3.60;;;22.70;99.90;;;;;;4992367;28;20458;-76
2022/09/14 13:46:25;;;;;;;4.03;2.70;;;22.40;99.90;;;;;;4993838;28;20462;-76
2022/09/14 13:48:52;;;;;;;4.73;3.17;;;22.20;99.90;;;;;;4993775;28;20808;-79
2022/09/14 13:51:24;;;;;;;5.70;4.10;;;22.10;99.90;;;;;;4992848;28;20490;-77
2022/09/14 13:53:53;;;;;;;7.70;3.90;;;22.00;99.90;;;;;;4991754;28;20440;-78
2022/09/14 13:56:30;;;;;;;6.73;4.03;;;21.80;99.90;;;;;;4993063;28;20463;-81
2022/09/14 13:59:17;;;;;;;6.97;3.80;;;21.70;99.90;;;;;;4993032;28;20491;-76
2022/09/14 14:01:52;;;;;;;7.70;3.80;;;21.50;99.90;;;;;;4992707;28;20492;-79
2022/09/14 14:04:28;;;;;;;8.30;3.20;;;21.50;99.90;;;;;;4991913;28;20439;-76
2022/09/14 14:07:07;;;;;;;7.03;3.30;;;21.30;99.90;;;;;;4991549;28;20776;-78
2022/09/14 14:09:43;;;;;;;4.67;3.70;;;21.20;99.90;;;;;;4993008;28;20435;-80
2022/09/14 14:12:20;;;;;;;6.50;3.20;;;21.20;99.90;;;;;;4993500;28;20478;-75
2022/09/14 14:14:53;;;;;;;6.93;3.40;;;21.20;99.90;;;;;;4992807;28;21329;-76
2022/09/14 14:17:38;;;;;;;5.90;3.70;;;21.20;99.90;;;;;;4991457;28;20989;-76
2022/09/14 14:20:28;;;;;;;8.83;3.90;;;21.10;99.90;;;;;;4991756;28;21003;-81
2022/09/14 14:22:56;;;;;;;8.13;3.80;;;21.10;99.90;;;;;;4992740;28;20477;-77
2022/09/14 14:25:30;;;;;;;6.73;3.90;;;21.10;99.90;;;;;;4991668;28;20483;-78
2022/09/14 14:28:01;;;;;;;6.43;2.73;;;21.10;99.90;;;;;;4992754;28;20445;-80
2022/09/14 14:30:29;;;;;;;5.17;3.23;;;21.20;99.90;;;;;;4992191;28;20444;-77
2022/09/14 14:32:58;;;;;;;3.40;3.10;;;21.20;99.90;;;;;;4991870;28;20467;-78
2022/09/14 14:35:27;;;;;;;9.17;3.40;;;21.20;99.90;;;;;;4990054;28;20460;-75
2022/09/14 14:37:54;;;;;;;6.30;3.70;;;21.20;99.90;;;;;;4990780;28;20929;-75
2022/09/14 14:40:21;;;;;;;4.30;2.60;;;21.30;99.90;;;;;;4990261;28;20468;-82
2022/09/14 14:42:49;;;;;;;3.60;3.10;;;21.30;99.90;;;;;;4989928;28;20987;-76
2022/09/14 14:45:20;;;;;;;7.23;3.37;;;21.30;99.90;;;;;;4989940;28;20466;-76
2022/09/14 14:47:48;;;;;;;5.53;2.93;;;21.30;99.90;;;;;;4990654;28;20433;-78
2022/09/14 14:50:17;;;;;;;7.03;3.10;;;21.30;99.90;;;;;;4989759;28;20464;-75
2022/09/14 14:52:44;;;;;;;7.77;2.67;;;21.40;99.90;;;;;;4990449;28;20495;-79
2022/09/14 14:55:11;;;;;;;6.93;2.60;;;21.40;99.90;;;;;;4989400;28;20975;-75
2022/09/14 14:57:38;;;;;;;3.10;2.60;;;21.40;99.90;;;;;;4991378;28;20980;-80
2022/09/14 15:00:11;;;;;;;3.70;2.60;;;21.30;99.90;;;;;;4991380;28;20459;-76
2022/09/14 15:02:40;;;;;;;4.77;2.97;;;21.30;99.90;;;;;;4992618;28;20880;-77
2022/09/14 15:05:07;;;;;;;6.90;3.17;;;21.40;99.90;;;;;;4989531;28;20944;-79
2022/09/14 15:07:34;;;;;;;5.30;2.60;;;21.40;99.90;;;;;;4991280;28;20483;-78
2022/09/14 15:10:01;;;;;;;3.37;2.53;;;21.50;99.90;;;;;;4991810;28;20463;-75
2022/09/14 15:12:28;;;;;;;4.80;2.17;;;21.40;99.90;;;;;;4989906;28;20517;-76
2022/09/14 15:14:55;;;;;;;4.10;2.40;;;21.40;99.90;;;;;;4987985;28;20441;-76
2022/09/14 15:17:21;;;;;;;2.40;2.00;;;21.50;99.90;;;;;;4988861;28;20228;-74
2022/09/14 15:19:49;;;;;;;3.13;1.90;;;21.50;99.90;;;;;;4989138;28;20510;-76
2022/09/14 15:22:16;;;;;;;3.80;1.97;;;21.50;99.90;;;;;;4988494;28;20479;-71
2022/09/14 15:24:43;;;;;;;2.03;1.50;;;21.50;99.90;;;;;;4986486;28;20923;-73
2022/09/14 15:27:10;;;;;;;2.83;1.60;;;21.50;99.90;;;;;;4987095;28;20460;-72
2022/09/14 15:29:37;;;;;;;3.80;2.17;;;21.50;99.90;;;;;;4986412;28;20452;-74
2022/09/14 15:32:04;;;;;;;2.00;1.60;;;21.40;99.90;;;;;;4982970;28;20479;-72
2022/09/14 15:34:31;;;;;;;4.03;1.97;;;21.50;99.90;;;;;;4985711;28;20462;-73
2022/09/14 15:36:59;;;;;;;1.73;1.53;;;21.50;99.90;;;;;;4986941;28;20450;-73
2022/09/14 15:39:30;;;;;;;6.17;1.80;;;21.50;99.90;;;;;;4973244;28;20502;-72
2022/09/14 15:41:57;;;;;;;2.77;1.80;;;21.50;99.90;;;;;;4969418;28;20984;-72
2022/09/14 15:44:24;;;;;;;2.50;1.73;;;21.60;99.90;;;;;;4967966;28;20464;-72
2022/09/14 15:46:51;;;;;;;4.73;2.10;;;21.60;99.90;;;;;;4983401;28;20452;-71
2022/09/14 15:49:20;;;;;;;4.60;1.87;;;21.60;99.90;;;;;;4980961;28;20812;-71
2022/09/14 15:51:49;;;;;;;4.73;2.20;;;21.70;99.90;;;;;;4986065;28;20507;-74
2022/09/14 15:54:21;;;;;;;4.47;1.93;;;21.70;99.90;;;;;;4985265;28;20458;-71
2022/09/14 15:56:49;;;;;;;3.27;2.10;;;21.70;99.90;;;;;;4985724;28;20451;-79
2022/09/14 15:59:17;;;;;;;3.90;1.83;;;21.80;99.90;;;;;;4988830;28;20491;-77
2022/09/14 16:01:44;;;;;;;4.93;2.50;;;21.80;99.90;;;;;;4989848;28;20487;-80
2022/09/14 16:04:11;;;;;;;2.10;1.77;;;21.80;99.90;;;;;;4991607;28;20891;-78
2022/09/14 16:06:38;;;;;;;3.63;2.10;;;21.80;99.90;;;;;;4991988;28;20515;-80
2022/09/14 16:09:07;;;;;;;4.10;2.10;;;21.90;99.90;;;;;;4989925;28;20618;-77
2022/09/14 16:11:37;;;;;;;1.97;1.77;;;22.00;99.90;;;;;;4989068;28;20482;-78
2022/09/14 16:14:05;;;;;;;4.47;1.70;;;22.10;99.90;;;;;;4988620;28;20483;-79
2022/09/14 16:16:32;;;;;;;3.40;1.73;;;22.20;99.90;;;;;;4988772;28;20459;-77
2022/09/14 16:19:04;;;;;;;2.20;1.33;;;22.20;99.90;;;;;;4990116;28;20487;-77
2022/09/14 16:21:31;;;;;;;1.90;1.50;;;22.00;99.90;;;;;;4990065;28;20483;-78
2022/09/14 16:23:59;;;;;;;1.50;1.30;;;21.90;99.90;;;;;;4990031;28;20471;-80
2022/09/14 16:26:28;;;;;;;2.07;1.20;;;21.90;99.90;;;;;;4990278;28;20839;-77
2022/09/14 16:28:56;;;;;;;4.40;1.50;;;21.90;99.90;;;;;;4989699;28;20970;-77
2022/09/14 16:31:27;;;;;;;3.20;1.40;;;21.90;99.90;;;;;;4989985;28;20563;-77
2022/09/14 16:33:57;;;;;;;2.53;1.47;;;21.80;99.90;;;;;;4989966;28;20908;-77
2022/09/14 16:36:26;;;;;;;4.43;1.70;;;21.80;99.90;;;;;;4989727;28;20482;-77
2022/09/14 16:38:55;;;;;;;3.23;1.90;;;21.80;99.90;;;;;;4989492;28;20502;-77
2022/09/14 16:41:22;;;;;;;4.47;1.90;;;21.70;99.90;;;;;;4990680;28;20480;-78
2022/09/14 16:43:54;;;;;;;2.10;1.50;;;21.70;99.90;;;;;;4990620;28;20462;-75
2022/09/14 16:46:22;;;;;;;2.43;1.47;;;21.60;99.90;;;;;;4989084;28;20542;-75
2022/09/14 16:48:49;;;;;;;2.70;1.80;;;21.60;99.90;;;;;;4989897;28;20456;-78
2022/09/14 16:51:18;;;;;;;4.17;1.57;;;21.60;99.90;;;;;;4991488;28;20721;-77
2022/09/14 16:53:46;;;;;;;5.23;1.90;;;21.60;99.90;;;;;;4990625;28;20460;-79
2022/09/14 16:56:15;;;;;;;3.67;1.80;;;21.60;99.90;;;;;;4991464;28;20478;-75
2022/09/14 16:58:42;;;;;;;2.80;1.63;;;21.60;99.90;;;;;;4991992;28;20507;-76
2022/09/14 17:01:13;;;;;;;2.63;1.50;;;21.60;99.90;;;;;;4991371;28;20490;-75
2022/09/14 17:03:42;;;;;;;3.33;1.83;;;21.50;99.90;;;;;;4991040;28;20444;-76
2022/09/14 17:06:11;;;;;;;2.40;1.57;;;21.50;99.90;;;;;;4990294;28;20455;-76